Time,TemperatureF,DewpointF,PressureIn,WindDirection,WindDirectionDegrees,WindSpeedMPH,WindSpeedGustMPH,Humidity,HourlyPrecipIn,Conditions,Clouds,dailyrainin,SoftwareType,DateUTC
2013-07-11 00:00:00,64.5,60.5,29.91,NNW,340,0.0,0.0,87,0.00,,CLR,0.00,VWS V14.00,2013-07-11 04:00:00,
2013-07-11 00:01:00,64.5,60.5,29.91,NNW,340,0.0,0.0,87,0.00,,CLR,0.00,VWS V14.00,2013-07-11 04:01:00,
2013-07-11 00:06:00,64.3,60.3,29.91,NNW,340,0.0,0.0,87,0.00,,CLR,0.00,VWS V14.00,2013-07-11 04:06:00,
2013-07-11 00:11:00,64.1,60.5,29.91,NNW,340,0.0,0.0,88,0.00,,CLR,0.00,VWS V14.00,2013-07-11 04:11:00,
2013-07-11 00:16:00,64.0,60.4,29.91,NNW,340,0.0,0.0,88,0.00,,CLR,0.00,VWS V14.00,2013-07-11 04:16:00,
2013-07-11 00:21:00,63.9,60.3,29.91,NNW,340,0.0,0.0,88,0.00,,CLR,0.00,VWS V14.00,2013-07-11 04:21:00,
2013-07-11 00:26:00,64.0,60.4,29.91,NNW,340,0.0,0.0,88,0.00,,CLR,0.00,VWS V14.00,2013-07-11 04:26:00,
2013-07-11 00:31:00,64.1,60.8,29.91,NNW,340,0.0,0.0,89,0.00,,CLR,0.00,VWS V14.00,2013-07-11 04:31:00,
2013-07-11 00:36:00,64.1,60.8,29.91,NNW,340,0.0,1.0,89,0.00,,CLR,0.00,VWS V14.00,2013-07-11 04:36:00,
2013-07-11 00:41:00,64.1,60.5,29.91,NNW,340,0.0,1.0,88,0.00,,CLR,0.00,VWS V14.00,2013-07-11 04:41:00,
2013-07-11 00:46:00,64.1,60.5,29.92,NNW,340,0.0,1.0,88,0.00,,CLR,0.00,VWS V14.00,2013-07-11 04:46:00,
2013-07-11 00:51:00,64.2,60.6,29.92,NNW,340,0.0,1.0,88,0.00,,CLR,0.00,VWS V14.00,2013-07-11 04:51:00,
2013-07-11 00:56:00,64.2,60.6,29.92,NNW,340,0.0,1.0,88,0.00,,CLR,0.00,VWS V14.00,2013-07-11 04:56:00,
2013-07-11 01:01:00,64.2,60.6,29.92,NNW,340,0.0,0.0,88,0.00,,BKN050,0.00,VWS V14.00,2013-07-11 05:01:00,
2013-07-11 01:06:00,64.3,60.7,29.91,NNW,340,0.0,0.0,88,0.00,,BKN050,0.00,VWS V14.00,2013-07-11 05:06:00,
2013-07-11 01:11:00,64.3,60.7,29.91,NNW,340,0.0,1.0,88,0.00,,BKN050,0.00,VWS V14.00,2013-07-11 05:11:00,
2013-07-11 01:16:00,64.3,60.7,29.91,NNW,340,0.0,1.0,88,0.00,,BKN050,0.00,VWS V14.00,2013-07-11 05:16:00,
2013-07-11 01:21:00,64.2,60.6,29.91,NNW,340,0.0,1.0,88,0.00,,BKN050,0.00,VWS V14.00,2013-07-11 05:21:00,
2013-07-11 01:26:00,64.1,60.5,29.91,NNW,340,0.0,3.0,88,0.00,,BKN050,0.00,VWS V14.00,2013-07-11 05:26:00,
2013-07-11 01:31:00,64.0,60.4,29.91,NNW,340,0.0,4.0,88,0.00,,BKN050,0.00,VWS V14.00,2013-07-11 05:31:00,
2013-07-11 01:36:00,63.9,60.3,29.91,NNW,340,0.0,4.0,88,0.00,,BKN050,0.00,VWS V14.00,2013-07-11 05:36:00,
2013-07-11 01:41:00,63.8,60.2,29.91,NNW,340,0.0,3.0,88,0.00,,BKN050,0.00,VWS V14.00,2013-07-11 05:41:00,
2013-07-11 01:46:00,63.7,60.1,29.91,NNW,340,0.0,3.0,88,0.00,,BKN050,0.00,VWS V14.00,2013-07-11 05:46:00,
2013-07-11 01:51:00,63.7,60.1,29.91,NNW,340,3.0,3.0,88,0.00,,BKN050,0.00,VWS V14.00,2013-07-11 05:51:00,
2013-07-11 01:56:00,63.7,59.8,29.90,NNW,340,0.0,3.0,87,0.00,,BKN050,0.00,VWS V14.00,2013-07-11 05:56:00,
2013-07-11 02:01:00,63.7,59.8,29.91,NNW,340,0.0,1.0,87,0.00,,BKN055,0.00,VWS V14.00,2013-07-11 06:01:00,
2013-07-11 02:06:00,63.6,59.7,29.91,NNW,340,0.0,3.0,87,0.00,,BKN055,0.00,VWS V14.00,2013-07-11 06:06:00,
2013-07-11 02:11:00,63.5,59.6,29.91,NNW,336,0.0,2.0,87,0.00,,BKN055,0.00,VWS V14.00,2013-07-11 06:11:00,
2013-07-11 02:16:00,63.4,59.5,29.91,NNW,336,0.0,2.0,87,0.00,,BKN055,0.00,VWS V14.00,2013-07-11 06:16:00,
2013-07-11 02:21:00,63.2,59.3,29.92,NNW,336,0.0,0.0,87,0.00,,BKN055,0.00,VWS V14.00,2013-07-11 06:21:00,
2013-07-11 02:26:00,63.1,59.5,29.92,NNW,336,0.0,0.0,88,0.00,,BKN055,0.00,VWS V14.00,2013-07-11 06:26:00,
2013-07-11 02:31:00,62.9,59.3,29.92,NNW,336,0.0,2.0,88,0.00,,BKN055,0.00,VWS V14.00,2013-07-11 06:31:00,
2013-07-11 02:36:00,62.8,59.2,29.92,NNW,336,0.0,2.0,88,0.00,,BKN055,0.00,VWS V14.00,2013-07-11 06:36:00,
2013-07-11 02:41:00,62.7,59.1,29.92,NNW,336,0.0,2.0,88,0.00,,BKN055,0.00,VWS V14.00,2013-07-11 06:41:00,
2013-07-11 02:46:00,62.7,59.4,29.92,NNW,336,2.0,2.0,89,0.00,,BKN055,0.00,VWS V14.00,2013-07-11 06:46:00,
2013-07-11 02:51:00,62.6,59.3,29.92,NNW,340,0.0,2.0,89,0.00,,BKN055,0.00,VWS V14.00,2013-07-11 06:51:00,
2013-07-11 02:56:00,62.6,59.3,29.93,NNW,340,0.0,2.0,89,0.00,,BKN055,0.00,VWS V14.00,2013-07-11 06:56:00,
2013-07-11 03:01:00,62.6,59.3,29.93,NNW,340,0.0,0.0,89,0.00,,SCT055,0.00,VWS V14.00,2013-07-11 07:01:00,
2013-07-11 03:06:00,62.6,59.3,29.92,NNW,340,0.0,0.0,89,0.00,,SCT055,0.00,VWS V14.00,2013-07-11 07:06:00,
2013-07-11 03:11:00,62.5,59.2,29.93,NNW,340,0.0,0.0,89,0.00,,SCT055,0.00,VWS V14.00,2013-07-11 07:11:00,
2013-07-11 03:16:00,62.3,59.0,29.93,NNW,340,0.0,0.0,89,0.00,,SCT055,0.00,VWS V14.00,2013-07-11 07:16:00,
2013-07-11 03:21:00,62.2,58.9,29.94,NNW,340,0.0,1.0,89,0.00,,SCT055,0.00,VWS V14.00,2013-07-11 07:21:00,
2013-07-11 03:26:00,62.2,58.9,29.94,NNW,340,0.0,1.0,89,0.00,,SCT055,0.00,VWS V14.00,2013-07-11 07:26:00,
2013-07-11 03:31:00,62.1,58.8,29.93,NNW,340,0.0,0.0,89,0.00,,SCT055,0.00,VWS V14.00,2013-07-11 07:31:00,
2013-07-11 03:36:00,62.1,59.1,29.94,NNW,340,0.0,0.0,90,0.00,,SCT055,0.00,VWS V14.00,2013-07-11 07:36:00,
2013-07-11 03:41:00,62.2,59.2,29.94,NNW,340,0.0,1.0,90,0.00,,SCT055,0.00,VWS V14.00,2013-07-11 07:41:00,
2013-07-11 03:46:00,62.1,59.1,29.94,NNW,340,0.0,1.0,90,0.00,,SCT055,0.00,VWS V14.00,2013-07-11 07:46:00,
2013-07-11 03:51:00,62.1,59.1,29.94,NNW,340,0.0,0.0,90,0.00,,SCT055,0.00,VWS V14.00,2013-07-11 07:51:00,
2013-07-11 03:56:00,62.2,59.2,29.94,NNW,340,0.0,0.0,90,0.00,,SCT055,0.00,VWS V14.00,2013-07-11 07:56:00,
2013-07-11 04:01:00,62.2,59.2,29.94,NNW,340,0.0,0.0,90,0.00,,BKN055,0.00,VWS V14.00,2013-07-11 08:01:00,
2013-07-11 04:06:00,62.2,59.2,29.94,NNW,340,0.0,0.0,90,0.00,,BKN055,0.00,VWS V14.00,2013-07-11 08:06:00,
2013-07-11 04:11:00,62.2,59.2,29.94,NNW,340,0.0,0.0,90,0.00,,BKN055,0.00,VWS V14.00,2013-07-11 08:11:00,
2013-07-11 04:16:00,62.1,59.1,29.95,NNW,340,0.0,0.0,90,0.00,,BKN055,0.00,VWS V14.00,2013-07-11 08:16:00,
2013-07-11 04:21:00,62.1,59.1,29.94,NNW,340,0.0,0.0,90,0.00,,BKN055,0.00,VWS V14.00,2013-07-11 08:21:00,
2013-07-11 04:26:00,62.0,59.0,29.95,NNW,340,0.0,0.0,90,0.00,,BKN055,0.00,VWS V14.00,2013-07-11 08:26:00,
2013-07-11 04:31:00,61.9,58.9,29.94,NNW,340,0.0,0.0,90,0.00,,BKN055,0.00,VWS V14.00,2013-07-11 08:31:00,
2013-07-11 04:36:00,61.8,58.8,29.95,NNW,340,0.0,0.0,90,0.00,,BKN055,0.00,VWS V14.00,2013-07-11 08:36:00,
2013-07-11 04:41:00,61.8,58.8,29.95,NNW,340,0.0,0.0,90,0.00,,BKN055,0.00,VWS V14.00,2013-07-11 08:41:00,
2013-07-11 04:46:00,61.8,58.8,29.95,NNW,340,0.0,0.0,90,0.00,,BKN055,0.00,VWS V14.00,2013-07-11 08:46:00,
2013-07-11 04:51:00,61.9,58.9,29.95,NNW,340,0.0,0.0,90,0.00,,BKN055,0.00,VWS V14.00,2013-07-11 08:51:00,
2013-07-11 04:56:00,62.0,59.0,29.94,NNW,340,0.0,0.0,90,0.00,,BKN055,0.00,VWS V14.00,2013-07-11 08:56:00,
2013-07-11 05:01:00,62.0,59.0,29.95,NNW,340,0.0,0.0,90,0.00,,OVC060,0.00,VWS V14.00,2013-07-11 09:01:00,
2013-07-11 05:06:00,62.0,59.0,29.95,NNW,340,0.0,2.0,90,0.00,,OVC060,0.00,VWS V14.00,2013-07-11 09:06:00,
2013-07-11 05:11:00,61.9,58.9,29.95,NNW,340,0.0,0.0,90,0.00,,OVC060,0.00,VWS V14.00,2013-07-11 09:11:00,
2013-07-11 05:16:00,61.9,58.9,29.96,NNW,340,0.0,0.0,90,0.00,,OVC060,0.00,VWS V14.00,2013-07-11 09:16:00,
2013-07-11 05:21:00,61.9,58.9,29.96,NNW,340,0.0,0.0,90,0.00,,OVC060,0.00,VWS V14.00,2013-07-11 09:21:00,
2013-07-11 05:26:00,61.9,58.9,29.96,NNW,340,0.0,0.0,90,0.00,,OVC060,0.00,VWS V14.00,2013-07-11 09:26:00,
2013-07-11 05:31:00,61.9,58.9,29.96,NNW,340,0.0,0.0,90,0.00,,OVC060,0.00,VWS V14.00,2013-07-11 09:31:00,
2013-07-11 05:36:00,62.0,59.0,29.96,NNW,340,0.0,0.0,90,0.00,,OVC060,0.00,VWS V14.00,2013-07-11 09:36:00,
2013-07-11 05:41:00,62.0,59.0,29.96,NNW,340,0.0,0.0,90,0.00,,OVC060,0.00,VWS V14.00,2013-07-11 09:41:00,
2013-07-11 05:46:00,62.1,59.1,29.97,NNW,340,0.0,0.0,90,0.00,,OVC060,0.00,VWS V14.00,2013-07-11 09:46:00,
2013-07-11 05:51:00,62.1,59.1,29.97,NNW,340,0.0,0.0,90,0.00,,OVC060,0.00,VWS V14.00,2013-07-11 09:51:00,
2013-07-11 05:56:00,62.1,59.5,29.97,NNW,340,0.0,1.0,91,0.00,,OVC060,0.00,VWS V14.00,2013-07-11 09:56:00,
2013-07-11 06:01:00,62.1,59.1,29.97,NNW,340,0.0,1.0,90,0.00,,OVC065,0.00,VWS V14.00,2013-07-11 10:01:00,
2013-07-11 06:06:00,62.1,59.1,29.97,NNW,340,0.0,2.0,90,0.00,,OVC065,0.00,VWS V14.00,2013-07-11 10:06:00,
2013-07-11 06:11:00,62.1,59.1,29.97,NNW,340,0.0,1.0,90,0.00,,OVC065,0.00,VWS V14.00,2013-07-11 10:11:00,
2013-07-11 06:16:00,62.1,59.1,29.97,NNW,340,0.0,2.0,90,0.00,,OVC065,0.00,VWS V14.00,2013-07-11 10:16:00,
2013-07-11 06:21:00,62.2,59.2,29.98,NNW,340,0.0,1.0,90,0.00,,OVC065,0.00,VWS V14.00,2013-07-11 10:21:00,
2013-07-11 06:26:00,62.2,59.2,29.98,NNW,340,0.0,2.0,90,0.00,,OVC065,0.00,VWS V14.00,2013-07-11 10:26:00,
2013-07-11 06:31:00,62.2,59.2,29.98,NNW,340,0.0,0.0,90,0.00,,OVC065,0.00,VWS V14.00,2013-07-11 10:31:00,
2013-07-11 06:36:00,62.2,59.2,29.99,NNW,340,0.0,0.0,90,0.00,,OVC065,0.00,VWS V14.00,2013-07-11 10:36:00,
2013-07-11 06:41:00,62.2,59.2,29.98,NNW,340,0.0,0.0,90,0.00,,OVC065,0.00,VWS V14.00,2013-07-11 10:41:00,
2013-07-11 06:46:00,62.3,59.3,29.99,NNW,340,0.0,0.0,90,0.00,,OVC065,0.00,VWS V14.00,2013-07-11 10:46:00,
2013-07-11 06:51:00,62.4,59.4,29.99,NNW,340,0.0,0.0,90,0.00,,OVC065,0.00,VWS V14.00,2013-07-11 10:51:00,
2013-07-11 06:56:00,62.4,59.4,29.99,NNW,340,0.0,0.0,90,0.00,,OVC065,0.00,VWS V14.00,2013-07-11 10:56:00,
2013-07-11 07:01:00,62.5,59.5,29.99,NNW,340,0.0,2.0,90,0.00,,OVC070,0.00,VWS V14.00,2013-07-11 11:01:00,
2013-07-11 07:06:00,62.6,59.6,29.99,NNW,340,0.0,2.0,90,0.00,,OVC070,0.00,VWS V14.00,2013-07-11 11:06:00,
2013-07-11 07:11:00,62.7,59.7,30.00,NNW,340,0.0,1.0,90,0.00,,OVC070,0.00,VWS V14.00,2013-07-11 11:11:00,
2013-07-11 07:16:00,62.7,59.7,29.99,NNW,340,0.0,1.0,90,0.00,,OVC070,0.00,VWS V14.00,2013-07-11 11:16:00,
2013-07-11 07:21:00,62.9,59.9,30.00,NNW,340,0.0,0.0,90,0.00,,OVC070,0.00,VWS V14.00,2013-07-11 11:21:00,
2013-07-11 07:26:00,63.0,59.7,30.00,NNW,340,0.0,0.0,89,0.00,,OVC070,0.00,VWS V14.00,2013-07-11 11:26:00,
2013-07-11 07:31:00,63.1,59.8,30.00,NNW,340,0.0,1.0,89,0.00,,OVC070,0.00,VWS V14.00,2013-07-11 11:31:00,
2013-07-11 07:36:00,63.2,59.9,30.00,NNW,340,0.0,1.0,89,0.00,,OVC070,0.00,VWS V14.00,2013-07-11 11:36:00,
2013-07-11 07:41:00,63.3,60.0,30.00,NNW,340,0.0,0.0,89,0.00,,OVC070,0.00,VWS V14.00,2013-07-11 11:41:00,
2013-07-11 07:46:00,63.5,60.2,30.00,NNW,340,0.0,0.0,89,0.00,,OVC070,0.00,VWS V14.00,2013-07-11 11:46:00,
2013-07-11 07:51:00,63.7,60.4,30.00,NNW,340,0.0,0.0,89,0.00,,OVC070,0.00,VWS V14.00,2013-07-11 11:51:00,
2013-07-11 07:56:00,63.8,60.5,30.00,NNW,340,0.0,1.0,89,0.00,,OVC070,0.00,VWS V14.00,2013-07-11 11:56:00,
2013-07-11 08:01:00,64.0,60.4,30.00,NNW,340,0.0,0.0,88,0.00,,OVC070,0.00,VWS V14.00,2013-07-11 12:01:00,
2013-07-11 08:06:00,64.1,60.5,30.01,NNW,345,1.0,2.0,88,0.00,,OVC070,0.00,VWS V14.00,2013-07-11 12:06:00,
2013-07-11 08:11:00,64.2,60.3,30.01,NNW,345,1.0,2.0,87,0.00,,OVC070,0.00,VWS V14.00,2013-07-11 12:11:00,
2013-07-11 08:16:00,64.4,60.1,30.01,NNW,345,0.0,2.0,86,0.00,,OVC070,0.00,VWS V14.00,2013-07-11 12:16:00,
2013-07-11 08:21:00,64.6,60.3,30.01,NNW,345,0.0,0.0,86,0.00,,OVC070,0.00,VWS V14.00,2013-07-11 12:21:00,
2013-07-11 08:26:00,64.9,60.3,30.01,NNW,345,0.0,2.0,85,0.00,,OVC070,0.00,VWS V14.00,2013-07-11 12:26:00,
2013-07-11 08:31:00,65.3,60.3,30.01,NNW,334,2.0,4.0,84,0.00,,OVC070,0.00,VWS V14.00,2013-07-11 12:31:00,
2013-07-11 08:36:00,65.7,60.4,30.01,NNE,17,1.0,5.0,83,0.00,,OVC070,0.00,VWS V14.00,2013-07-11 12:36:00,
2013-07-11 08:41:00,66.0,59.7,30.01,NE,39,0.0,2.0,80,0.00,,OVC070,0.00,VWS V14.00,2013-07-11 12:41:00,
2013-07-11 08:46:00,66.4,60.0,30.01,North,360,0.0,3.0,80,0.00,,OVC070,0.00,VWS V14.00,2013-07-11 12:46:00,
2013-07-11 08:51:00,66.7,59.6,30.01,North,360,0.0,2.0,78,0.00,,OVC070,0.00,VWS V14.00,2013-07-11 12:51:00,
2013-07-11 08:56:00,66.9,59.5,30.01,NNE,18,0.0,4.0,77,0.00,,OVC070,0.00,VWS V14.00,2013-07-11 12:56:00,
2013-07-11 09:01:00,67.4,60.0,30.01,North,5,0.0,2.0,77,0.00,,SCT070,0.00,VWS V14.00,2013-07-11 13:01:00,
2013-07-11 09:06:00,68.0,59.8,30.01,NW,326,1.0,3.0,75,0.00,,SCT070,0.00,VWS V14.00,2013-07-11 13:06:00,
2013-07-11 09:11:00,68.5,59.1,30.01,NNE,21,0.0,1.0,72,0.00,,SCT070,0.00,VWS V14.00,2013-07-11 13:11:00,
2013-07-11 09:16:00,69.0,58.8,30.01,NE,46,0.0,3.0,70,0.00,,SCT070,0.00,VWS V14.00,2013-07-11 13:16:00,
2013-07-11 09:21:00,69.2,58.6,30.01,NNW,328,3.0,3.0,69,0.00,,SCT070,0.00,VWS V14.00,2013-07-11 13:21:00,
2013-07-11 09:26:00,69.4,58.0,30.02,NE,45,0.0,3.0,67,0.00,,SCT070,0.00,VWS V14.00,2013-07-11 13:26:00,
2013-07-11 09:32:00,69.9,58.9,30.02,NW,313,0.0,1.0,68,0.00,,SCT070,0.00,VWS V14.00,2013-07-11 13:32:00,
2013-07-11 09:37:00,70.1,59.1,30.02,North,360,0.0,3.0,68,0.00,,SCT070,0.00,VWS V14.00,2013-07-11 13:37:00,
2013-07-11 09:42:00,70.3,57.1,30.02,NE,50,1.0,4.0,63,0.00,,SCT070,0.00,VWS V14.00,2013-07-11 13:42:00,
2013-07-11 09:47:00,70.4,57.7,30.02,North,355,0.0,5.0,64,0.00,,SCT070,0.00,VWS V14.00,2013-07-11 13:47:00,
2013-07-11 09:52:00,70.6,57.8,30.02,NNE,18,0.0,4.0,64,0.00,,SCT070,0.00,VWS V14.00,2013-07-11 13:52:00,
2013-07-11 09:57:00,71.0,58.2,30.02,NNE,25,0.0,4.0,64,0.00,,SCT070,0.00,VWS V14.00,2013-07-11 13:57:00,
2013-07-11 10:02:00,71.5,58.7,30.02,NNW,345,0.0,3.0,64,0.00,,CLR,0.00,VWS V14.00,2013-07-11 14:02:00,
2013-07-11 10:07:00,71.6,57.0,30.02,NNE,30,0.0,6.0,60,0.00,,CLR,0.00,VWS V14.00,2013-07-11 14:07:00,
2013-07-11 10:13:00,71.9,58.6,30.02,ENE,68,0.0,2.0,63,0.00,,CLR,0.00,VWS V14.00,2013-07-11 14:13:00,
2013-07-11 10:18:00,71.7,57.1,30.02,NE,36,5.0,9.0,60,0.00,,CLR,0.00,VWS V14.00,2013-07-11 14:18:00,
2013-07-11 10:23:00,71.8,57.2,30.02,NE,44,0.0,3.0,60,0.00,,CLR,0.00,VWS V14.00,2013-07-11 14:23:00,
2013-07-11 10:28:00,72.0,57.4,30.02,NE,55,4.0,6.0,60,0.00,,CLR,0.00,VWS V14.00,2013-07-11 14:28:00,
2013-07-11 10:33:00,72.2,57.6,30.02,NE,55,0.0,1.0,60,0.00,,CLR,0.00,VWS V14.00,2013-07-11 14:33:00,
2013-07-11 10:38:00,72.2,56.6,30.02,ENE,75,0.0,6.0,58,0.00,,CLR,0.00,VWS V14.00,2013-07-11 14:38:00,
2013-07-11 10:43:00,72.3,56.7,30.02,NNE,30,0.0,5.0,58,0.00,,CLR,0.00,VWS V14.00,2013-07-11 14:43:00,
2013-07-11 10:48:00,72.2,57.1,30.02,North,5,0.0,7.0,59,0.00,,CLR,0.00,VWS V14.00,2013-07-11 14:48:00,
2013-07-11 10:53:00,72.5,57.4,30.02,NNE,29,2.0,5.0,59,0.00,,CLR,0.00,VWS V14.00,2013-07-11 14:53:00,
2013-07-11 10:58:00,72.5,56.4,30.03,East,79,0.0,7.0,57,0.00,,CLR,0.00,VWS V14.00,2013-07-11 14:58:00,
2013-07-11 11:03:00,72.8,57.2,30.02,NE,46,0.0,6.0,58,0.00,,CLR,0.00,VWS V14.00,2013-07-11 15:03:00,
2013-07-11 11:08:00,73.0,56.9,30.02,ENE,63,0.0,6.0,57,0.00,,CLR,0.00,VWS V14.00,2013-07-11 15:08:00,
2013-07-11 11:13:00,73.2,57.1,30.02,NNE,12,2.0,5.0,57,0.00,,CLR,0.00,VWS V14.00,2013-07-11 15:13:00,
2013-07-11 11:18:00,73.2,56.6,30.03,NNW,332,0.0,5.0,56,0.00,,CLR,0.00,VWS V14.00,2013-07-11 15:18:00,
2013-07-11 11:23:00,73.1,57.9,30.03,NNE,13,0.0,5.0,59,0.00,,CLR,0.00,VWS V14.00,2013-07-11 15:23:00,
2013-07-11 11:28:00,73.2,57.1,30.03,North,10,0.0,5.0,57,0.00,,CLR,0.00,VWS V14.00,2013-07-11 15:28:00,
2013-07-11 11:33:00,73.5,57.3,30.03,NE,39,3.0,5.0,57,0.00,,CLR,0.00,VWS V14.00,2013-07-11 15:33:00,
2013-07-11 11:38:00,73.4,56.3,30.03,NE,55,0.0,5.0,55,0.00,,CLR,0.00,VWS V14.00,2013-07-11 15:38:00,
2013-07-11 11:43:00,73.5,57.3,30.03,NE,43,0.0,10.0,57,0.00,,CLR,0.00,VWS V14.00,2013-07-11 15:43:00,
2013-07-11 11:48:00,73.7,57.0,30.03,NE,34,4.0,4.0,56,0.00,,CLR,0.00,VWS V14.00,2013-07-11 15:48:00,
2013-07-11 11:53:00,73.9,59.6,30.03,East,98,0.0,7.0,61,0.00,,CLR,0.00,VWS V14.00,2013-07-11 15:53:00,
2013-07-11 11:58:00,74.5,59.2,30.03,NNW,345,0.0,7.0,59,0.00,,CLR,0.00,VWS V14.00,2013-07-11 15:58:00,
2013-07-11 12:03:00,74.7,57.5,30.03,North,11,3.0,5.0,55,0.00,,CLR,0.00,VWS V14.00,2013-07-11 16:03:00,
2013-07-11 12:08:00,74.5,58.3,30.03,ENE,61,0.0,5.0,57,0.00,,CLR,0.00,VWS V14.00,2013-07-11 16:08:00,
2013-07-11 12:13:00,74.7,57.0,30.03,East,82,0.0,5.0,54,0.00,,CLR,0.00,VWS V14.00,2013-07-11 16:13:00,
2013-07-11 12:18:00,74.8,57.6,30.03,NE,54,4.0,6.0,55,0.00,,CLR,0.00,VWS V14.00,2013-07-11 16:18:00,
2013-07-11 12:23:00,74.7,58.0,30.03,NE,44,0.0,4.0,56,0.00,,CLR,0.00,VWS V14.00,2013-07-11 16:23:00,
2013-07-11 12:28:00,74.6,56.4,30.02,ENE,71,0.0,0.0,53,0.00,,CLR,0.00,VWS V14.00,2013-07-11 16:28:00,
2013-07-11 12:33:00,74.7,58.0,30.03,NW,326,0.0,5.0,56,0.00,,CLR,0.00,VWS V14.00,2013-07-11 16:33:00,
2013-07-11 12:38:00,74.6,57.9,30.02,NW,326,0.0,5.0,56,0.00,,CLR,0.00,VWS V14.00,2013-07-11 16:38:00,
2013-07-11 12:43:00,74.3,58.1,30.03,NNE,18,0.0,9.0,57,0.00,,CLR,0.00,VWS V14.00,2013-07-11 16:43:00,
2013-07-11 12:48:00,74.8,59.0,30.02,NE,55,0.0,0.0,58,0.00,,CLR,0.00,VWS V14.00,2013-07-11 16:48:00,
2013-07-11 12:53:00,75.6,58.3,30.03,SE,131,0.0,5.0,55,0.00,,CLR,0.00,VWS V14.00,2013-07-11 16:53:00,
2013-07-11 12:58:00,76.0,58.7,30.03,NW,321,0.0,1.0,55,0.00,,CLR,0.00,VWS V14.00,2013-07-11 16:58:00,
2013-07-11 13:03:00,76.3,57.9,30.03,NNE,30,0.0,3.0,53,0.00,,SCT049,0.00,VWS V14.00,2013-07-11 17:03:00,
2013-07-11 13:08:00,76.1,57.2,30.03,NNW,341,4.0,5.0,52,0.00,,SCT049,0.00,VWS V14.00,2013-07-11 17:08:00,
2013-07-11 13:14:00,75.2,56.9,30.03,NNE,32,0.0,5.0,53,0.00,,SCT049,0.00,VWS V14.00,2013-07-11 17:14:00,
2013-07-11 13:19:00,74.8,56.0,30.03,ENE,59,0.0,0.0,52,0.00,,SCT049,0.00,VWS V14.00,2013-07-11 17:19:00,
2013-07-11 13:24:00,74.9,57.2,30.03,NNW,337,0.0,5.0,54,0.00,,SCT049,0.00,VWS V14.00,2013-07-11 17:24:00,
2013-07-11 13:29:00,75.3,58.0,30.02,North,350,3.0,4.0,55,0.00,,SCT049,0.00,VWS V14.00,2013-07-11 17:29:00,
2013-07-11 13:34:00,75.7,59.4,30.02,NE,55,0.0,5.0,57,0.00,,SCT049,0.00,VWS V14.00,2013-07-11 17:34:00,
2013-07-11 13:39:00,76.2,57.3,30.03,NE,51,0.0,0.0,52,0.00,,SCT049,0.00,VWS V14.00,2013-07-11 17:39:00,
2013-07-11 13:44:00,76.7,58.8,30.02,ENE,57,0.0,3.0,54,0.00,,SCT049,0.00,VWS V14.00,2013-07-11 17:44:00,
2013-07-11 13:49:00,76.9,56.3,30.02,NNW,346,0.0,0.0,49,0.00,,SCT049,0.00,VWS V14.00,2013-07-11 17:49:00,
2013-07-11 13:54:00,76.8,57.3,30.02,NNW,330,0.0,4.0,51,0.00,,SCT049,0.00,VWS V14.00,2013-07-11 17:54:00,
2013-07-11 13:59:00,76.7,56.1,30.02,NE,40,1.0,1.0,49,0.00,,SCT055,0.00,VWS V14.00,2013-07-11 17:59:00,
2013-07-11 14:04:00,76.4,58.0,30.01,North,360,0.0,1.0,53,0.00,,SCT055,0.00,VWS V14.00,2013-07-11 18:04:00,
2013-07-11 14:09:00,76.4,59.1,30.02,East,96,0.0,1.0,55,0.00,,SCT055,0.00,VWS V14.00,2013-07-11 18:09:00,
2013-07-11 14:38:00,77.1,58.7,30.01,NW,313,1.0,6.0,53,0.00,,SCT055,0.00,VWS V14.00,2013-07-11 18:38:00,
2013-07-11 14:43:00,77.3,58.3,30.01,ENE,61,0.0,5.0,52,0.00,,SCT055,0.00,VWS V14.00,2013-07-11 18:43:00,
2013-07-11 14:48:00,77.0,58.0,30.01,North,355,0.0,2.0,52,0.00,,SCT055,0.00,VWS V14.00,2013-07-11 18:48:00,
2013-07-11 14:53:00,76.9,56.3,30.01,NE,36,0.0,6.0,49,0.00,,SCT055,0.00,VWS V14.00,2013-07-11 18:53:00,
2013-07-11 14:59:00,77.1,58.7,30.01,NE,42,0.0,0.0,53,0.00,,SCT055,0.00,VWS V14.00,2013-07-11 18:59:00,
2013-07-11 15:03:00,77.4,57.3,30.01,NE,53,0.0,1.0,50,0.00,,CLR,0.00,VWS V14.00,2013-07-11 19:03:00,
2013-07-11 15:08:00,77.5,58.0,30.01,NE,38,0.0,1.0,51,0.00,,CLR,0.00,VWS V14.00,2013-07-11 19:08:00,
2013-07-11 15:13:00,77.6,57.5,30.01,ENE,67,0.0,3.0,50,0.00,,CLR,0.00,VWS V14.00,2013-07-11 19:13:00,
2013-07-11 15:18:00,77.6,57.5,30.01,ENE,70,0.0,0.0,50,0.00,,CLR,0.00,VWS V14.00,2013-07-11 19:18:00,
2013-07-11 15:24:00,77.7,58.7,30.01,NE,49,0.0,3.0,52,0.00,,CLR,0.00,VWS V14.00,2013-07-11 19:24:00,
2013-07-11 15:29:00,77.8,58.2,30.01,ENE,67,0.0,0.0,51,0.00,,CLR,0.00,VWS V14.00,2013-07-11 19:29:00,
2013-07-11 15:34:00,78.1,58.5,30.01,ENE,60,0.0,6.0,51,0.00,,CLR,0.00,VWS V14.00,2013-07-11 19:34:00,
2013-07-11 15:39:00,78.3,57.6,30.01,ENE,60,1.0,1.0,49,0.00,,CLR,0.00,VWS V14.00,2013-07-11 19:39:00,
2013-07-11 15:44:00,77.5,56.3,30.01,NE,45,0.0,4.0,48,0.00,,CLR,0.00,VWS V14.00,2013-07-11 19:44:00,
2013-07-11 15:49:00,77.3,57.8,30.01,East,84,0.0,0.0,51,0.00,,CLR,0.00,VWS V14.00,2013-07-11 19:49:00,
2013-07-11 15:54:00,77.5,56.9,30.01,ENE,62,0.0,4.0,49,0.00,,CLR,0.00,VWS V14.00,2013-07-11 19:54:00,
2013-07-11 15:59:00,77.9,57.2,30.00,East,90,0.0,0.0,49,0.00,,CLR,0.00,VWS V14.00,2013-07-11 19:59:00,
2013-07-11 16:04:00,78.7,59.6,30.00,NNW,345,0.0,6.0,52,0.00,,CLR,0.00,VWS V14.00,2013-07-11 20:04:00,
2013-07-11 16:09:00,79.0,56.5,30.00,NW,325,0.0,0.0,46,0.00,,CLR,0.00,VWS V14.00,2013-07-11 20:09:00,
2013-07-11 16:14:00,79.1,57.8,30.01,NE,46,0.0,4.0,48,0.00,,CLR,0.00,VWS V14.00,2013-07-11 20:14:00,
2013-07-11 16:19:00,78.5,57.2,30.00,ENE,63,0.0,0.0,48,0.00,,CLR,0.00,VWS V14.00,2013-07-11 20:19:00,
2013-07-11 16:24:00,77.9,58.3,30.00,NE,45,0.0,4.0,51,0.00,,CLR,0.00,VWS V14.00,2013-07-11 20:24:00,
2013-07-11 16:29:00,78.1,57.4,30.00,NE,55,3.0,4.0,49,0.00,,CLR,0.00,VWS V14.00,2013-07-11 20:29:00,
2013-07-11 16:34:00,78.5,60.5,30.01,NNE,30,0.0,4.0,54,0.00,,CLR,0.00,VWS V14.00,2013-07-11 20:34:00,
2013-07-11 16:39:00,78.9,58.7,30.00,North,360,0.0,0.0,50,0.00,,CLR,0.00,VWS V14.00,2013-07-11 20:39:00,
2013-07-11 16:44:00,78.8,56.9,30.00,NNW,338,0.0,5.0,47,0.00,,CLR,0.00,VWS V14.00,2013-07-11 20:44:00,
2013-07-11 16:49:00,78.7,59.1,30.00,NNW,331,0.0,0.0,51,0.00,,CLR,0.00,VWS V14.00,2013-07-11 20:49:00,
2013-07-11 16:54:00,78.7,58.5,30.00,North,360,0.0,5.0,50,0.00,,CLR,0.00,VWS V14.00,2013-07-11 20:54:00,
2013-07-11 16:59:00,78.2,57.5,30.00,North,360,0.0,0.0,49,0.00,,CLR,0.00,VWS V14.00,2013-07-11 20:59:00,
2013-07-11 17:04:00,78.3,58.7,30.00,NE,45,0.0,1.0,51,0.00,,CLR,0.00,VWS V14.00,2013-07-11 21:04:00,
2013-07-11 17:09:00,78.7,59.6,29.99,NNE,15,0.0,1.0,52,0.00,,CLR,0.00,VWS V14.00,2013-07-11 21:09:00,
2013-07-11 17:14:00,79.2,59.0,29.99,North,360,0.0,7.0,50,0.00,,CLR,0.00,VWS V14.00,2013-07-11 21:14:00,
2013-07-11 17:19:00,79.3,59.6,30.00,NNW,327,0.0,3.0,51,0.00,,CLR,0.00,VWS V14.00,2013-07-11 21:19:00,
2013-07-11 17:24:00,79.4,58.6,29.99,East,81,0.0,6.0,49,0.00,,CLR,0.00,VWS V14.00,2013-07-11 21:24:00,
2013-07-11 17:29:00,79.1,58.3,29.99,ENE,62,0.0,1.0,49,0.00,,CLR,0.00,VWS V14.00,2013-07-11 21:29:00,
2013-07-11 17:34:00,77.8,57.1,29.99,NE,46,0.0,5.0,49,0.00,,CLR,0.00,VWS V14.00,2013-07-11 21:34:00,
2013-07-11 17:39:00,76.9,58.5,30.00,NE,46,0.0,0.0,53,0.00,,CLR,0.00,VWS V14.00,2013-07-11 21:39:00,
2013-07-11 17:44:00,76.2,58.9,29.99,NE,46,0.0,3.0,55,0.00,,CLR,0.00,VWS V14.00,2013-07-11 21:44:00,
2013-07-11 17:49:00,76.4,58.0,29.99,NE,39,0.0,1.0,53,0.00,,CLR,0.00,VWS V14.00,2013-07-11 21:49:00,
2013-07-11 17:54:00,77.0,58.0,29.99,NNW,346,1.0,7.0,52,0.00,,CLR,0.00,VWS V14.00,2013-07-11 21:54:00,
2013-07-11 18:00:00,77.6,59.1,29.99,NNW,340,0.0,1.0,53,0.00,,FEW060,0.00,VWS V14.00,2013-07-11 22:00:00,
2013-07-11 18:04:00,78.0,59.0,29.99,ENE,61,0.0,4.0,52,0.00,,FEW060,0.00,VWS V14.00,2013-07-11 22:04:00,
2013-07-11 18:10:00,78.1,59.6,29.99,NW,321,0.0,0.0,53,0.00,,FEW060,0.00,VWS V14.00,2013-07-11 22:10:00,
2013-07-11 18:15:00,78.4,59.3,29.99,NE,56,0.0,1.0,52,0.00,,FEW060,0.00,VWS V14.00,2013-07-11 22:15:00,
2013-07-11 18:20:00,78.5,58.3,29.99,North,360,0.0,4.0,50,0.00,,FEW060,0.00,VWS V14.00,2013-07-11 22:20:00,
2013-07-11 18:25:00,78.3,57.6,29.99,NE,36,0.0,4.0,49,0.00,,FEW060,0.00,VWS V14.00,2013-07-11 22:25:00,
2013-07-11 18:30:00,78.3,57.6,29.99,North,360,0.0,3.0,49,0.00,,FEW060,0.00,VWS V14.00,2013-07-11 22:30:00,
2013-07-11 18:35:00,78.3,59.2,29.99,NNW,342,0.0,4.0,52,0.00,,FEW060,0.00,VWS V14.00,2013-07-11 22:35:00,
2013-07-11 18:40:00,78.0,59.0,29.99,North,5,0.0,1.0,52,0.00,,FEW060,0.00,VWS V14.00,2013-07-11 22:40:00,
2013-07-11 18:45:00,77.8,59.3,29.99,NE,34,0.0,1.0,53,0.00,,FEW060,0.00,VWS V14.00,2013-07-11 22:45:00,
2013-07-11 18:50:00,77.7,58.7,29.99,NW,326,0.0,4.0,52,0.00,,FEW060,0.00,VWS V14.00,2013-07-11 22:50:00,
2013-07-11 18:55:00,77.5,59.0,29.99,North,360,0.0,4.0,53,0.00,,FEW060,0.00,VWS V14.00,2013-07-11 22:55:00,
2013-07-11 19:00:00,77.2,58.2,29.99,NNW,346,0.0,3.0,52,0.00,,CLR,0.00,VWS V14.00,2013-07-11 23:00:00,
2013-07-11 19:05:00,77.1,57.6,29.99,NNE,31,0.0,3.0,51,0.00,,CLR,0.00,VWS V14.00,2013-07-11 23:05:00,
2013-07-11 19:11:00,77.0,57.5,29.98,NW,317,0.0,1.0,51,0.00,,CLR,0.00,VWS V14.00,2013-07-11 23:11:00,
2013-07-11 19:16:00,77.0,58.6,29.98,East,79,0.0,1.0,53,0.00,,CLR,0.00,VWS V14.00,2013-07-11 23:16:00,
2013-07-11 19:21:00,76.9,59.0,29.99,NE,45,0.0,1.0,54,0.00,,CLR,0.00,VWS V14.00,2013-07-11 23:21:00,
2013-07-11 19:26:00,77.0,58.6,29.99,ENE,57,0.0,3.0,53,0.00,,CLR,0.00,VWS V14.00,2013-07-11 23:26:00,
2013-07-11 19:31:00,76.8,58.4,29.98,ENE,61,0.0,2.0,53,0.00,,CLR,0.00,VWS V14.00,2013-07-11 23:31:00,
2013-07-11 19:36:00,76.6,58.2,29.99,ENE,60,0.0,2.0,53,0.00,,CLR,0.00,VWS V14.00,2013-07-11 23:36:00,
2013-07-11 19:41:00,76.4,57.5,29.99,ENE,60,0.0,1.0,52,0.00,,CLR,0.00,VWS V14.00,2013-07-11 23:41:00,
2013-07-11 19:46:00,76.2,58.9,29.99,ENE,61,0.0,1.0,55,0.00,,CLR,0.00,VWS V14.00,2013-07-11 23:46:00,
2013-07-11 19:51:00,76.0,58.7,29.99,ENE,60,0.0,0.0,55,0.00,,CLR,0.00,VWS V14.00,2013-07-11 23:51:00,
2013-07-11 19:56:00,75.7,57.9,29.99,ENE,61,0.0,0.0,54,0.00,,CLR,0.00,VWS V14.00,2013-07-11 23:56:00,
2013-07-11 20:01:00,75.7,58.9,29.99,ENE,61,0.0,0.0,56,0.00,,CLR,0.00,VWS V14.00,2013-07-12 00:01:00,
2013-07-11 20:06:00,75.5,59.2,29.99,ENE,61,0.0,0.0,57,0.00,,CLR,0.00,VWS V14.00,2013-07-12 00:06:00,
2013-07-11 20:11:00,75.1,58.3,29.99,ENE,61,0.0,1.0,56,0.00,,CLR,0.00,VWS V14.00,2013-07-12 00:11:00,
2013-07-11 20:16:00,74.8,58.6,29.99,NE,45,0.0,2.0,57,0.00,,CLR,0.00,VWS V14.00,2013-07-12 00:16:00,
2013-07-11 20:21:00,74.6,59.3,29.99,NE,44,0.0,0.0,59,0.00,,CLR,0.00,VWS V14.00,2013-07-12 00:21:00,
2013-07-11 20:26:00,74.3,60.0,29.99,NE,44,0.0,0.0,61,0.00,,CLR,0.00,VWS V14.00,2013-07-12 00:26:00,
2013-07-11 20:32:00,73.9,60.1,29.99,NE,44,0.0,0.0,62,0.00,,CLR,0.00,VWS V14.00,2013-07-12 00:32:00,
2013-07-11 20:37:00,73.3,60.4,29.99,NE,44,0.0,0.0,64,0.00,,CLR,0.00,VWS V14.00,2013-07-12 00:37:00,
2013-07-11 20:42:00,72.6,59.7,29.99,NE,44,0.0,0.0,64,0.00,,CLR,0.00,VWS V14.00,2013-07-12 00:42:00,
2013-07-11 20:47:00,71.9,59.5,29.99,NE,44,0.0,0.0,65,0.00,,CLR,0.00,VWS V14.00,2013-07-12 00:47:00,
2013-07-11 20:52:00,71.3,59.8,29.99,NE,44,0.0,0.0,67,0.00,,CLR,0.00,VWS V14.00,2013-07-12 00:52:00,
2013-07-11 20:57:00,70.7,59.6,29.99,NE,44,0.0,0.0,68,0.00,,CLR,0.00,VWS V14.00,2013-07-12 00:57:00,
2013-07-11 21:02:00,70.2,59.6,29.99,NE,44,0.0,0.0,69,0.00,,CLR,0.00,VWS V14.00,2013-07-12 01:02:00,
2013-07-11 21:07:00,69.7,59.9,29.98,NE,43,0.0,0.0,71,0.00,,CLR,0.00,VWS V14.00,2013-07-12 01:07:00,
2013-07-11 21:12:00,69.2,59.4,29.98,NE,43,0.0,0.0,71,0.00,,CLR,0.00,VWS V14.00,2013-07-12 01:12:00,
2013-07-11 21:17:00,68.6,58.8,29.99,NE,42,0.0,0.0,71,0.00,,CLR,0.00,VWS V14.00,2013-07-12 01:17:00,
2013-07-11 21:22:00,68.2,58.5,29.99,NE,43,0.0,0.0,71,0.00,,CLR,0.00,VWS V14.00,2013-07-12 01:22:00,
2013-07-11 21:27:00,67.9,58.5,29.99,NE,45,0.0,0.0,72,0.00,,CLR,0.00,VWS V14.00,2013-07-12 01:27:00,
2013-07-11 21:32:00,67.6,58.3,29.99,NE,44,0.0,0.0,72,0.00,,CLR,0.00,VWS V14.00,2013-07-12 01:32:00,
2013-07-11 21:37:00,67.4,58.1,29.99,NE,44,0.0,0.0,72,0.00,,CLR,0.00,VWS V14.00,2013-07-12 01:37:00,
2013-07-11 21:42:00,67.1,58.2,29.99,NE,44,0.0,0.0,73,0.00,,CLR,0.00,VWS V14.00,2013-07-12 01:42:00,
2013-07-11 21:47:00,66.9,58.3,30.00,NE,44,0.0,0.0,74,0.00,,CLR,0.00,VWS V14.00,2013-07-12 01:47:00,
2013-07-11 21:52:00,66.6,57.7,30.00,NE,44,0.0,0.0,73,0.00,,CLR,0.00,VWS V14.00,2013-07-12 01:52:00,
2013-07-11 21:57:00,66.4,57.9,30.00,NE,44,0.0,0.0,74,0.00,,CLR,0.00,VWS V14.00,2013-07-12 01:57:00,
2013-07-11 22:03:00,66.3,57.8,30.00,NE,44,0.0,0.0,74,0.00,,FEW060,0.00,VWS V14.00,2013-07-12 02:03:00,
2013-07-11 22:08:00,66.1,58.0,30.00,NE,44,0.0,0.0,75,0.00,,FEW060,0.00,VWS V14.00,2013-07-12 02:08:00,
2013-07-11 22:13:00,66.0,58.2,30.01,NE,44,0.0,0.0,76,0.00,,FEW060,0.00,VWS V14.00,2013-07-12 02:13:00,
2013-07-11 22:18:00,65.9,58.5,30.01,NE,44,0.0,0.0,77,0.00,,FEW060,0.00,VWS V14.00,2013-07-12 02:18:00,
2013-07-11 22:23:00,65.8,58.0,30.01,NE,44,0.0,0.0,76,0.00,,FEW060,0.00,VWS V14.00,2013-07-12 02:23:00,
2013-07-11 22:28:00,65.6,58.2,30.01,NE,44,0.0,0.0,77,0.00,,FEW060,0.00,VWS V14.00,2013-07-12 02:28:00,
2013-07-11 22:33:00,65.4,58.0,30.01,NE,44,0.0,0.0,77,0.00,,FEW060,0.00,VWS V14.00,2013-07-12 02:33:00,
2013-07-11 22:38:00,65.3,58.3,30.02,NE,44,0.0,0.0,78,0.00,,FEW060,0.00,VWS V14.00,2013-07-12 02:38:00,
2013-07-11 22:43:00,65.3,58.6,30.02,NE,44,0.0,1.0,79,0.00,,FEW060,0.00,VWS V14.00,2013-07-12 02:43:00,
2013-07-11 22:48:00,65.2,58.9,30.02,NE,44,0.0,1.0,80,0.00,,FEW060,0.00,VWS V14.00,2013-07-12 02:48:00,
2013-07-11 22:53:00,65.2,58.9,30.02,NE,44,0.0,3.0,80,0.00,,FEW060,0.00,VWS V14.00,2013-07-12 02:53:00,
2013-07-11 22:58:00,65.2,59.2,30.02,NE,44,0.0,3.0,81,0.00,,FEW060,0.00,VWS V14.00,2013-07-12 02:58:00,
2013-07-11 23:03:00,65.2,59.2,30.02,NE,46,0.0,1.0,81,0.00,,CLR,0.00,VWS V14.00,2013-07-12 03:03:00,
2013-07-11 23:08:00,65.2,59.6,30.02,NE,46,0.0,0.0,82,0.00,,CLR,0.00,VWS V14.00,2013-07-12 03:08:00,
2013-07-11 23:14:00,65.1,59.5,30.02,NE,46,0.0,2.0,82,0.00,,CLR,0.00,VWS V14.00,2013-07-12 03:14:00,
2013-07-11 23:19:00,65.0,59.4,30.02,NE,46,0.0,0.0,82,0.00,,CLR,0.00,VWS V14.00,2013-07-12 03:19:00,
2013-07-11 23:24:00,65.0,59.7,30.02,NE,47,0.0,1.0,83,0.00,,CLR,0.00,VWS V14.00,2013-07-12 03:24:00,
2013-07-11 23:29:00,64.9,59.6,30.02,NE,47,0.0,0.0,83,0.00,,CLR,0.00,VWS V14.00,2013-07-12 03:29:00,
2013-07-11 23:34:00,64.8,59.5,30.02,NE,47,0.0,0.0,83,0.00,,CLR,0.00,VWS V14.00,2013-07-12 03:34:00,
2013-07-11 23:39:00,64.6,59.3,30.02,NE,47,0.0,0.0,83,0.00,,CLR,0.00,VWS V14.00,2013-07-12 03:39:00,
2013-07-11 23:44:00,64.5,59.6,30.03,NE,46,0.0,1.0,84,0.00,,CLR,0.00,VWS V14.00,2013-07-12 03:44:00,
2013-07-11 23:49:00,64.3,59.4,30.03,NE,47,0.0,0.0,84,0.00,,CLR,0.00,VWS V14.00,2013-07-12 03:49:00,
2013-07-11 23:54:00,64.2,59.3,30.03,NE,47,0.0,0.0,84,0.00,,CLR,0.00,VWS V14.00,2013-07-12 03:54:00,
2013-07-11 23:59:00,64.1,59.2,30.03,NE,47,0.0,0.0,84,0.00,,CLR,0.00,VWS V14.00,2013-07-12 03:59:00,